Time;durP1;ratioP1;P1;durP2;ratioP2;P2;SDS_P1;SDS_P2;PMS_P1;PMS_P2;Temp;Humidity;BMP_temperature;BMP_pressure;BME280_temperature;BME280_humidity;BME280_pressure;Samples;Min_cycle;Max_cycle;Signal;HPM_P1;HPM_P2
2023/07/09 00:00:40;;;;;;;0.50;0.50;;;;;;;22.79;78.76;99599.06;5071431;28;20215;-68
2023/07/09 00:03:06;;;;;;;0.60;0.60;;;;;;;22.78;78.08;99606.06;5071920;28;20217;-68
2023/07/09 00:05:33;;;;;;;0.50;0.50;;;;;;;22.73;78.47;99602.16;5071504;28;20208;-68
2023/07/09 00:08:01;;;;;;;0.40;0.40;;;;;;;22.75;77.71;99601.06;5069620;28;20200;-68
2023/07/09 00:10:27;;;;;;;0.73;0.73;;;;;;;22.78;77.88;99610.47;5071617;28;20228;-67
2023/07/09 00:12:54;;;;;;;0.47;0.47;;;;;;;22.69;78.47;99606.78;5071839;28;20592;-67
2023/07/09 00:15:21;;;;;;;0.97;0.97;;;;;;;22.54;78.67;99607.91;5071834;28;20204;-68
2023/07/09 00:17:49;;;;;;;0.60;0.60;;;;;;;22.48;78.98;99608.41;5071679;28;20224;-67
2023/07/09 00:20:18;;;;;;;0.70;0.70;;;;;;;22.43;79.31;99607.88;5071648;28;20553;-68
2023/07/09 00:22:51;;;;;;;0.60;0.60;;;;;;;22.38;79.45;99613.47;5070392;28;20254;-68
2023/07/09 00:25:19;;;;;;;1.10;1.10;;;;;;;22.33;79.06;99593.84;5072630;28;20667;-68
2023/07/09 00:27:49;;;;;;;0.70;0.70;;;;;;;22.31;79.20;99611.44;5071596;28;20207;-67
2023/07/09 00:30:19;;;;;;;0.50;0.50;;;;;;;22.30;79.41;99599.31;5071774;28;20196;-68
2023/07/09 00:32:46;;;;;;;0.60;0.60;;;;;;;22.27;78.97;99589.94;5071620;28;20212;-67
2023/07/09 00:35:15;;;;;;;0.67;0.67;;;;;;;22.30;79.61;99602.75;5071462;28;20203;-68
2023/07/09 00:37:43;;;;;;;0.60;0.60;;;;;;;22.26;79.66;99603.13;5071654;28;20282;-67
2023/07/09 00:40:15;;;;;;;0.60;0.60;;;;;;;22.11;79.17;99594.63;5070414;28;20234;-68
2023/07/09 00:42:45;;;;;;;0.70;0.70;;;;;;;22.19;78.65;99612.34;5071537;28;20203;-68
2023/07/09 00:45:19;;;;;;;0.50;0.50;;;;;;;22.17;79.08;99602.00;5072092;28;20648;-68
2023/07/09 00:47:53;;;;;;;0.77;0.77;;;;;;;22.19;78.82;99613.19;5069790;28;20591;-67
2023/07/09 00:50:35;;;;;;;0.50;0.50;;;;;;;22.22;78.64;99606.91;5071230;28;20254;-68
2023/07/09 00:53:09;;;;;;;0.53;0.53;;;;;;;22.11;77.47;99593.81;5071018;28;20212;-67
2023/07/09 00:55:42;;;;;;;0.77;0.63;;;;;;;22.20;78.10;99619.22;5068225;28;20199;-68
2023/07/09 00:58:15;;;;;;;0.63;0.63;;;;;;;22.18;78.07;99614.13;5071083;28;20203;-67
2023/07/09 01:00:47;;;;;;;0.50;0.50;;;;;;;22.19;77.90;99617.59;5071550;28;20212;-68
2023/07/09 01:03:21;;;;;;;0.77;0.77;;;;;;;22.13;77.35;99612.81;5070699;28;20249;-67
2023/07/09 01:05:51;;;;;;;0.87;0.87;;;;;;;22.06;77.73;99611.59;5070484;28;20203;-68
2023/07/09 01:08:20;;;;;;;0.97;0.93;;;;;;;21.96;78.06;99596.63;5070560;28;20200;-67
2023/07/09 01:10:46;;;;;;;0.97;0.97;;;;;;;21.96;78.03;99607.06;5071010;28;20293;-67
2023/07/09 01:13:14;;;;;;;0.43;0.43;;;;;;;21.94;77.87;99608.94;5068890;28;20212;-68
2023/07/09 01:15:41;;;;;;;0.40;0.40;;;;;;;21.91;77.88;99603.94;5070858;28;20200;-67
2023/07/09 01:18:10;;;;;;;0.87;0.87;;;;;;;21.90;78.48;99612.72;5069812;28;20807;-67
2023/07/09 01:20:40;;;;;;;0.80;0.80;;;;;;;21.88;78.57;99614.56;5067570;28;20580;-68
2023/07/09 01:23:09;;;;;;;0.50;0.50;;;;;;;21.87;78.63;99609.47;5068685;28;20209;-67
2023/07/09 01:25:39;;;;;;;0.70;0.70;;;;;;;21.83;78.42;99611.47;5070182;28;20572;-67
2023/07/09 01:28:06;;;;;;;0.53;0.53;;;;;;;21.81;78.66;99608.13;5070669;28;20200;-67
2023/07/09 01:30:37;;;;;;;0.50;0.50;;;;;;;21.78;79.09;99612.72;5069423;28;20687;-67
2023/07/09 01:33:06;;;;;;;1.43;0.77;;;;;;;21.76;78.72;99605.03;5069944;28;20265;-68
2023/07/09 01:35:36;;;;;;;0.60;0.60;;;;;;;21.73;78.30;99607.88;5070575;28;20577;-67
2023/07/09 01:38:06;;;;;;;0.50;0.50;;;;;;;21.66;78.69;99609.25;5070174;28;20195;-68
2023/07/09 01:40:35;;;;;;;0.40;0.40;;;;;;;21.57;79.18;99609.91;5068873;28;20671;-67
2023/07/09 01:43:06;;;;;;;0.70;0.70;;;;;;;21.53;79.78;99597.19;5068990;28;20682;-68
2023/07/09 01:45:34;;;;;;;0.60;0.60;;;;;;;21.42;79.91;99606.63;5070129;28;20200;-67
2023/07/09 01:48:01;;;;;;;0.37;0.37;;;;;;;21.39;80.00;99606.00;5069890;28;20289;-68
2023/07/09 01:50:27;;;;;;;0.63;0.63;;;;;;;21.37;79.81;99613.13;5069153;28;20664;-67
2023/07/09 01:52:55;;;;;;;0.50;0.50;;;;;;;21.35;80.56;99612.41;5069833;28;20248;-68
2023/07/09 01:55:22;;;;;;;0.50;0.50;;;;;;;21.28;80.73;99612.00;5070353;28;20200;-68
2023/07/09 01:57:52;;;;;;;0.60;0.60;;;;;;;21.26;80.54;99613.06;5070108;28;20210;-67
2023/07/09 02:00:19;;;;;;;0.47;0.47;;;;;;;21.20;80.93;99616.91;5069802;28;20199;-68
2023/07/09 02:02:47;;;;;;;0.60;0.60;;;;;;;21.18;81.05;99612.75;5070175;28;20197;-67
2023/07/09 02:05:17;;;;;;;0.60;0.60;;;;;;;21.15;80.92;99612.97;5069142;28;20591;-68
2023/07/09 02:07:44;;;;;;;0.40;0.40;;;;;;;21.13;80.95;99614.84;5069774;28;20205;-68
2023/07/09 02:10:12;;;;;;;0.70;0.70;;;;;;;21.16;80.72;99625.91;5070570;28;20265;-67
2023/07/09 02:12:39;;;;;;;0.40;0.40;;;;;;;21.20;80.09;99616.91;5070249;28;20621;-67
2023/07/09 02:15:09;;;;;;;0.80;0.80;;;;;;;21.25;80.08;99625.25;5069842;28;20687;-68
2023/07/09 02:17:36;;;;;;;0.53;0.53;;;;;;;21.25;80.33;99634.84;5069883;28;20242;-68
2023/07/09 02:20:05;;;;;;;2.87;0.87;;;;;;;21.26;80.27;99631.31;5069667;28;20202;-67
2023/07/09 02:22:31;;;;;;;0.67;0.67;;;;;;;21.24;79.57;99636.63;5069807;28;20244;-68
2023/07/09 02:24:58;;;;;;;0.67;0.67;;;;;;;21.16;79.61;99619.84;5067881;28;20199;-68
2023/07/09 02:27:25;;;;;;;0.40;0.40;;;;;;;21.20;79.55;99634.31;5070053;28;20196;-68
2023/07/09 02:29:52;;;;;;;0.50;0.50;;;;;;;21.19;79.93;99635.28;5068806;28;20204;-67
2023/07/09 02:32:22;;;;;;;1.07;0.53;;;;;;;21.14;80.04;99632.97;5070045;28;20200;-67
2023/07/09 02:34:52;;;;;;;0.40;0.40;;;;;;;21.13;80.00;99635.72;5065867;28;20256;-67
2023/07/09 02:37:20;;;;;;;0.70;0.70;;;;;;;21.04;79.86;99625.88;5068895;28;20700;-68
2023/07/09 02:39:47;;;;;;;0.50;0.50;;;;;;;21.07;80.27;99636.06;5067733;28;20203;-68
2023/07/09 02:42:16;;;;;;;0.57;0.57;;;;;;;21.00;80.72;99640.91;5068127;28;20199;-68
2023/07/09 02:44:43;;;;;;;0.80;0.80;;;;;;;20.98;80.77;99647.16;5068890;28;20203;-67
2023/07/09 02:47:10;;;;;;;0.57;0.57;;;;;;;20.98;80.53;99649.75;5067407;28;20674;-68
2023/07/09 02:49:39;;;;;;;0.53;0.53;;;;;;;20.92;80.47;99649.25;5070208;28;20269;-68
2023/07/09 02:52:06;;;;;;;0.53;0.53;;;;;;;20.89;80.27;99652.06;5069348;28;20217;-67
2023/07/09 02:54:33;;;;;;;0.50;0.50;;;;;;;20.90;80.30;99656.31;5068803;28;20223;-68
2023/07/09 02:57:00;;;;;;;0.40;0.40;;;;;;;20.89;79.91;99649.47;5069387;28;20215;-67
2023/07/09 02:59:29;;;;;;;0.50;0.50;;;;;;;20.88;80.26;99650.38;5069351;28;20210;-67
2023/07/09 03:01:56;;;;;;;0.40;0.40;;;;;;;20.93;79.67;99661.34;5069473;28;20199;-67
2023/07/09 03:04:23;;;;;;;0.50;0.50;;;;;;;20.93;79.83;99658.75;5069219;28;20248;-67
2023/07/09 03:06:51;;;;;;;0.70;0.70;;;;;;;20.92;79.77;99662.28;5069466;28;20199;-67
2023/07/09 03:09:18;;;;;;;0.50;0.50;;;;;;;20.92;79.47;99664.88;5069105;28;20192;-67
2023/07/09 03:11:45;;;;;;;0.80;0.80;;;;;;;20.95;79.73;99669.88;5068394;28;20687;-67
2023/07/09 03:14:11;;;;;;;0.70;0.70;;;;;;;20.97;79.50;99668.97;5069313;28;20595;-67
2023/07/09 03:16:39;;;;;;;0.70;0.70;;;;;;;20.99;78.87;99669.69;5069248;28;20228;-67
2023/07/09 03:19:06;;;;;;;0.63;0.63;;;;;;;20.98;78.63;99674.06;5069532;28;20195;-68
2023/07/09 03:21:33;;;;;;;0.50;0.50;;;;;;;21.04;78.42;99670.19;5069422;28;20276;-67
2023/07/09 03:24:02;;;;;;;0.70;0.70;;;;;;;21.05;78.67;99669.25;5069476;28;20218;-67
2023/07/09 03:26:28;;;;;;;0.93;0.50;;;;;;;21.05;79.34;99664.88;5067811;28;20671;-67
2023/07/09 03:28:55;;;;;;;0.50;0.50;;;;;;;21.02;79.35;99666.84;5069919;28;20200;-67
2023/07/09 03:31:23;;;;;;;0.50;0.50;;;;;;;21.04;78.50;99671.03;5068769;28;20196;-67
2023/07/09 03:33:51;;;;;;;0.83;0.83;;;;;;;21.10;78.80;99669.81;5069234;28;20230;-67
2023/07/09 03:36:18;;;;;;;0.50;0.50;;;;;;;20.99;77.67;99648.81;5069500;28;20671;-68
2023/07/09 03:38:45;;;;;;;0.50;0.50;;;;;;;21.18;77.98;99667.50;5072520;28;20199;-67
2023/07/09 03:41:13;;;;;;;0.40;0.40;;;;;;;21.23;77.90;99673.22;5072859;28;20289;-67
2023/07/09 03:43:40;;;;;;;0.43;0.43;;;;;;;21.15;77.48;99654.69;5072397;28;20210;-67
2023/07/09 03:46:07;;;;;;;0.60;0.60;;;;;;;21.32;77.43;99672.59;5072276;28;20202;-67
2023/07/09 03:48:33;;;;;;;0.50;0.50;;;;;;;21.41;77.40;99670.19;5070563;28;20210;-67
2023/07/09 03:51:00;;;;;;;1.40;0.70;;;;;;;21.51;75.92;99666.91;5072248;28;20198;-67
2023/07/09 03:53:27;;;;;;;0.47;0.47;;;;;;;21.55;75.85;99673.59;5071475;28;20204;-68
2023/07/09 03:55:55;;;;;;;0.50;0.50;;;;;;;21.60;75.88;99674.94;5071957;28;20701;-67
2023/07/09 03:58:25;;;;;;;0.63;0.63;;;;;;;21.68;75.46;99677.81;5071726;28;20212;-67
2023/07/09 04:00:52;;;;;;;0.90;0.90;;;;;;;21.69;75.25;99676.88;5070660;28;20294;-67
2023/07/09 04:03:19;;;;;;;0.60;0.60;;;;;;;21.71;75.16;99674.97;5070194;28;20199;-67
2023/07/09 04:05:45;;;;;;;0.47;0.47;;;;;;;21.80;74.90;99673.50;5072082;28;20196;-67
2023/07/09 04:08:12;;;;;;;0.80;0.80;;;;;;;21.90;73.86;99685.81;5072407;28;20683;-67
2023/07/09 04:10:39;;;;;;;0.60;0.60;;;;;;;22.04;74.27;99681.34;5072325;28;20334;-68
2023/07/09 04:13:05;;;;;;;0.50;0.50;;;;;;;22.14;73.14;99687.56;5072132;28;20213;-68
2023/07/09 04:15:34;;;;;;;0.47;0.47;;;;;;;22.26;73.68;99681.47;5072194;28;20224;-68
2023/07/09 04:18:01;;;;;;;0.60;0.60;;;;;;;22.42;71.94;99687.22;5071823;28;20231;-67
2023/07/09 04:20:27;;;;;;;0.70;0.70;;;;;;;22.53;71.97;99695.09;5067500;28;20200;-68
2023/07/09 04:22:54;;;;;;;0.70;0.70;;;;;;;22.61;71.82;99700.59;5071053;28;20287;-68
2023/07/09 04:25:21;;;;;;;0.80;0.80;;;;;;;22.60;71.00;99692.84;5071795;28;20204;-68
2023/07/09 04:27:49;;;;;;;0.47;0.47;;;;;;;22.69;70.62;99700.88;5071904;28;20227;-68
2023/07/09 04:30:16;;;;;;;0.63;0.57;;;;;;;22.81;70.60;99710.38;5071367;28;20273;-68
2023/07/09 04:32:45;;;;;;;0.50;0.50;;;;;;;22.92;70.07;99706.97;5071348;28;20200;-68
2023/07/09 04:35:12;;;;;;;0.40;0.40;;;;;;;23.08;69.52;99714.47;5069786;28;20211;-68
2023/07/09 04:37:40;;;;;;;0.40;0.40;;;;;;;23.24;67.62;99718.41;5070874;28;20691;-68
2023/07/09 04:40:10;;;;;;;0.70;0.70;;;;;;;23.27;67.07;99709.50;5068387;28;20200;-67
2023/07/09 04:42:39;;;;;;;0.50;0.50;;;;;;;23.34;68.15;99708.91;5072623;28;20210;-67
2023/07/09 04:45:08;;;;;;;0.50;0.50;;;;;;;23.51;66.31;99712.84;5070872;28;20204;-67
2023/07/09 04:47:35;;;;;;;0.50;0.50;;;;;;;23.63;65.42;99713.66;5070244;28;20591;-68
2023/07/09 04:50:04;;;;;;;0.43;0.43;;;;;;;23.71;66.33;99717.38;5070645;28;20273;-69
2023/07/09 04:52:31;;;;;;;0.63;0.63;;;;;;;23.97;64.91;99716.09;5067759;28;20287;-68
2023/07/09 04:54:58;;;;;;;0.77;0.77;;;;;;;24.13;65.78;99712.28;5065310;28;20277;-69
2023/07/09 04:57:26;;;;;;;0.30;0.30;;;;;;;24.24;65.77;99709.63;5070413;28;20200;-69
2023/07/09 04:59:53;;;;;;;0.50;0.50;;;;;;;24.45;62.60;99713.94;5069485;28;20262;-68
2023/07/09 05:02:20;;;;;;;0.43;0.43;;;;;;;24.65;62.49;99716.72;5066151;28;20677;-68
2023/07/09 05:04:46;;;;;;;0.50;0.50;;;;;;;24.65;62.78;99720.16;5069100;28;20813;-68
2023/07/09 05:07:15;;;;;;;0.30;0.30;;;;;;;24.71;61.39;99705.72;5066339;28;20204;-68
2023/07/09 05:09:41;;;;;;;0.53;0.53;;;;;;;24.91;62.35;99710.97;5069296;28;20208;-68
2023/07/09 05:12:09;;;;;;;0.50;0.50;;;;;;;25.13;61.95;99720.50;5069620;28;20261;-68
2023/07/09 05:14:36;;;;;;;0.90;0.90;;;;;;;25.18;59.81;99717.44;5070050;28;20219;-68
2023/07/09 05:17:04;;;;;;;0.80;0.80;;;;;;;25.36;60.96;99721.16;5069815;28;20695;-69
2023/07/09 05:19:31;;;;;;;0.43;0.43;;;;;;;25.58;58.32;99711.31;5069837;28;20211;-69
2023/07/09 05:21:57;;;;;;;0.50;0.50;;;;;;;25.67;60.22;99703.59;5069602;28;20208;-69
2023/07/09 05:24:25;;;;;;;0.50;0.50;;;;;;;25.89;57.07;99722.56;5067452;28;20196;-69
2023/07/09 05:26:52;;;;;;;0.50;0.50;;;;;;;26.12;57.04;99720.53;5067304;28;20214;-68
2023/07/09 05:29:19;;;;;;;0.60;0.60;;;;;;;26.45;55.09;99724.59;5069212;28;20204;-69
2023/07/09 05:31:46;;;;;;;1.13;1.13;;;;;;;26.76;55.09;99731.34;5064817;28;20215;-68
2023/07/09 05:34:12;;;;;;;0.40;0.40;;;;;;;27.04;51.35;99730.47;5066981;28;20500;-69
2023/07/09 05:36:40;;;;;;;0.70;0.63;;;;;;;27.18;51.80;99721.28;5069605;28;20196;-69
2023/07/09 05:39:07;;;;;;;0.40;0.40;;;;;;;27.44;49.47;99726.75;5067066;28;20203;-69
2023/07/09 05:41:35;;;;;;;0.50;0.50;;;;;;;27.62;50.04;99735.56;5068292;28;20215;-69
2023/07/09 05:44:02;;;;;;;0.27;0.27;;;;;;;27.76;48.80;99724.50;5069246;28;20200;-69
2023/07/09 05:46:28;;;;;;;0.80;0.80;;;;;;;28.00;50.24;99714.25;5067082;28;20208;-69
2023/07/09 05:48:55;;;;;;;0.30;0.30;;;;;;;28.01;48.66;99709.81;5067040;28;20204;-68
2023/07/09 05:51:24;;;;;;;1.43;0.43;;;;;;;28.21;49.02;99710.53;5069052;28;20208;-69
2023/07/09 05:53:50;;;;;;;0.50;0.50;;;;;;;28.30;50.59;99714.91;5067738;28;20595;-69
2023/07/09 05:56:17;;;;;;;0.43;0.43;;;;;;;28.26;50.17;99708.25;5069127;28;20628;-68
2023/07/09 05:58:45;;;;;;;0.30;0.30;;;;;;;28.41;48.66;99702.28;5069031;28;20204;-70
2023/07/09 06:01:12;;;;;;;0.53;0.53;;;;;;;28.61;48.56;99708.22;5067375;28;20281;-69
2023/07/09 06:03:39;;;;;;;0.40;0.40;;;;;;;28.81;50.02;99709.72;5067861;28;20681;-69
2023/07/09 06:06:06;;;;;;;0.45;0.45;;;;;;;29.00;50.04;99701.59;5065797;28;20200;-68
2023/07/09 06:08:33;;;;;;;0.50;0.50;;;;;;;28.91;47.95;99699.06;5067824;28;20704;-68
2023/07/09 06:11:02;;;;;;;1.03;0.50;;;;;;;28.70;50.02;99699.41;5068194;28;20254;-69
2023/07/09 06:13:30;;;;;;;0.95;0.50;;;;;;;28.83;45.67;99696.34;5065849;28;20449;-72
2023/07/09 06:15:59;;;;;;;0.70;0.65;;;;;;;28.75;46.85;99691.88;5065826;28;20457;-67
2023/07/09 06:18:29;;;;;;;3.55;0.50;;;;;;;29.03;48.33;99693.38;5068953;28;20250;-67
2023/07/09 06:20:57;;;;;;;0.47;0.47;;;;;;;29.03;46.99;99682.81;5067024;28;20283;-67
2023/07/09 06:23:24;;;;;;;2.63;0.90;;;;;;;29.11;46.53;99689.94;5068111;28;20660;-67
2023/07/09 06:25:52;;;;;;;0.47;0.47;;;;;;;28.93;46.03;99691.81;5067830;28;20234;-67
2023/07/09 06:28:21;;;;;;;0.50;0.50;;;;;;;28.80;46.69;99691.41;5067976;28;20204;-67
2023/07/09 06:30:49;;;;;;;2.87;0.50;;;;;;;28.88;47.97;99688.81;5065458;28;20204;-67
2023/07/09 06:33:18;;;;;;;0.50;0.50;;;;;;;29.27;45.53;99689.22;5068511;28;20690;-67
2023/07/09 06:35:49;;;;;;;0.40;0.40;;;;;;;29.52;46.15;99693.63;5069237;28;20310;-67
2023/07/09 06:38:16;;;;;;;0.65;0.65;;;;;;;29.78;44.08;99689.06;5068249;28;20282;-67
2023/07/09 06:40:43;;;;;;;1.13;0.50;;;;;;;30.02;46.18;99694.44;5070396;28;20207;-68
2023/07/09 06:43:10;;;;;;;0.88;0.50;;;;;;;30.19;45.61;99688.19;5069967;28;20210;-67
2023/07/09 06:45:37;;;;;;;0.50;0.50;;;;;;;30.01;44.12;99690.16;5066500;28;20207;-67
2023/07/09 06:48:05;;;;;;;0.55;0.55;;;;;;;29.95;43.37;99669.63;5065403;28;20204;-67
2023/07/09 06:50:35;;;;;;;1.65;0.40;;;;;;;29.95;43.48;99693.41;5070204;28;20204;-67
2023/07/09 06:53:02;;;;;;;0.40;0.40;;;;;;;30.27;44.12;99683.88;5070386;28;20204;-67
2023/07/09 06:55:29;;;;;;;0.80;0.40;;;;;;;30.35;45.45;99686.53;5070334;28;20289;-67
2023/07/09 06:57:56;;;;;;;0.40;0.40;;;;;;;30.20;41.33;99689.84;5069903;28;20202;-67
2023/07/09 07:00:23;;;;;;;0.40;0.40;;;;;;;30.13;43.53;99688.00;5070559;28;20572;-67
2023/07/09 07:02:50;;;;;;;0.47;0.47;;;;;;;30.37;43.83;99679.25;5065689;28;20683;-67
2023/07/09 07:05:17;;;;;;;0.40;0.40;;;;;;;30.38;45.08;99675.59;5069050;28;20192;-67
2023/07/09 07:07:46;;;;;;;0.50;0.50;;;;;;;30.57;42.39;99683.22;5070041;28;20283;-67
2023/07/09 07:10:12;;;;;;;0.40;0.40;;;;;;;30.77;41.64;99681.88;5070090;28;20200;-67
2023/07/09 07:12:44;;;;;;;0.55;0.45;;;;;;;30.99;40.04;99685.66;5072584;28;20261;-67
2023/07/09 07:15:13;;;;;;;0.50;0.50;;;;;;;31.26;42.07;99681.78;5073672;28;20282;-67
2023/07/09 07:17:40;;;;;;;0.43;0.43;;;;;;;31.50;39.83;99684.38;5073756;28;20318;-67
2023/07/09 07:20:08;;;;;;;0.50;0.50;;;;;;;31.82;41.21;99689.50;5072923;28;20737;-67
2023/07/09 07:22:35;;;;;;;0.30;0.30;;;;;;;32.00;38.40;99684.72;5073737;28;20200;-67
2023/07/09 07:25:03;;;;;;;3.53;0.70;;;;;;;32.23;36.76;99688.25;5074076;28;20200;-67
2023/07/09 07:27:30;;;;;;;0.38;0.38;;;;;;;32.45;37.32;99683.91;5073301;28;20204;-68
2023/07/09 07:29:57;;;;;;;0.57;0.57;;;;;;;32.37;37.78;99683.16;5073856;28;20200;-67
2023/07/09 07:32:24;;;;;;;0.45;0.43;;;;;;;32.16;38.58;99682.00;5073613;28;20321;-67
2023/07/09 07:34:51;;;;;;;0.50;0.50;;;;;;;32.06;38.47;99683.22;5073326;28;23235;-67
2023/07/09 07:37:20;;;;;;;0.43;0.43;;;;;;;32.25;36.62;99680.09;5072433;28;20717;-67
2023/07/09 07:39:47;;;;;;;0.38;0.38;;;;;;;32.34;36.05;99676.38;5073478;28;20214;-67
2023/07/09 07:42:15;;;;;;;0.40;0.40;;;;;;;31.91;38.74;99671.69;5073311;28;20196;-67
2023/07/09 07:44:42;;;;;;;0.30;0.30;;;;;;;31.57;38.43;99650.84;5073359;28;20283;-67
2023/07/09 07:47:09;;;;;;;3.05;0.32;;;;;;;31.73;37.80;99670.16;5068714;28;20196;-67
2023/07/09 07:49:36;;;;;;;0.63;0.63;;;;;;;32.02;36.45;99666.81;5073450;28;20211;-67
2023/07/09 07:52:03;;;;;;;0.38;0.38;;;;;;;32.31;35.82;99667.97;5068815;28;20196;-67
2023/07/09 07:54:31;;;;;;;0.75;0.60;;;;;;;32.37;36.68;99672.56;5073275;28;20249;-67
2023/07/09 07:56:58;;;;;;;0.50;0.50;;;;;;;32.54;39.06;99666.06;5072177;28;20298;-67
2023/07/09 07:59:26;;;;;;;0.30;0.30;;;;;;;32.60;37.59;99652.13;5072843;28;20216;-67
2023/07/09 08:01:53;;;;;;;0.30;0.30;;;;;;;32.64;38.29;99658.72;5072584;28;20668;-67
2023/07/09 08:04:20;;;;;;;1.58;0.40;;;;;;;32.36;35.88;99654.97;5073257;28;20204;-67
2023/07/09 08:06:47;;;;;;;0.40;0.30;;;;;;;31.98;38.61;99662.88;5072623;28;20193;-67
2023/07/09 08:09:14;;;;;;;0.50;0.50;;;;;;;32.07;40.26;99661.00;5072506;28;20200;-67
2023/07/09 08:11:40;;;;;;;0.80;0.80;;;;;;;31.97;38.92;99661.22;5073034;28;20240;-67
2023/07/09 08:14:07;;;;;;;0.40;0.40;;;;;;;32.06;38.20;99657.53;5072651;28;20258;-67
2023/07/09 08:16:35;;;;;;;0.30;0.30;;;;;;;32.32;37.30;99648.34;5072560;28;20237;-67
2023/07/09 08:19:02;;;;;;;2.50;0.32;;;;;;;32.43;39.07;99650.59;5071282;28;20195;-67
2023/07/09 08:21:29;;;;;;;1.65;0.55;;;;;;;32.37;39.75;99648.66;5072837;28;20208;-67
2023/07/09 08:23:56;;;;;;;0.50;0.50;;;;;;;32.75;37.23;99655.63;5072341;28;20206;-67
2023/07/09 08:26:23;;;;;;;0.50;0.50;;;;;;;33.01;34.69;99650.69;5072545;28;20203;-67
2023/07/09 08:28:50;;;;;;;0.38;0.38;;;;;;;33.07;36.95;99644.63;5071975;28;20613;-67
2023/07/09 08:31:17;;;;;;;0.47;0.47;;;;;;;33.16;34.86;99648.88;5072559;28;20204;-67
2023/07/09 08:33:46;;;;;;;0.40;0.40;;;;;;;33.20;35.84;99634.19;5072022;28;20208;-67
2023/07/09 08:36:12;;;;;;;0.52;0.52;;;;;;;33.49;35.66;99643.94;5067562;28;20773;-67
2023/07/09 08:38:39;;;;;;;0.50;0.50;;;;;;;33.26;36.09;99644.09;5072172;28;20200;-67
2023/07/09 08:41:13;;;;;;;0.43;0.40;;;;;;;33.06;34.25;99639.47;5072657;28;20222;-67
2023/07/09 08:43:51;;;;;;;0.50;0.50;;;;;;;32.68;35.33;99644.06;5068169;28;20604;-67
2023/07/09 08:46:25;;;;;;;0.45;0.45;;;;;;;32.46;37.87;99635.13;5069978;28;20200;-67
2023/07/09 08:48:56;;;;;;;0.40;0.40;;;;;;;32.76;36.75;99625.41;5071989;28;20203;-67
2023/07/09 08:51:28;;;;;;;5.32;0.50;;;;;;;32.79;38.15;99629.53;5072251;28;20660;-67
2023/07/09 08:53:58;;;;;;;1.00;0.43;;;;;;;32.89;39.35;99622.13;5071790;28;20196;-67
2023/07/09 08:56:25;;;;;;;0.30;0.30;;;;;;;33.00;37.59;99627.78;5071767;28;20687;-67
2023/07/09 08:58:55;;;;;;;0.40;0.40;;;;;;;33.21;34.09;99625.22;5071687;28;20222;-67
2023/07/09 09:01:26;;;;;;;0.45;0.45;;;;;;;33.31;35.97;99627.59;5071747;28;20207;-66
2023/07/09 09:03:59;;;;;;;0.50;0.50;;;;;;;33.32;34.05;99631.88;5071532;28;20204;-67
2023/07/09 09:06:28;;;;;;;0.30;0.30;;;;;;;33.46;36.15;99623.06;5071519;28;20672;-67
2023/07/09 09:09:03;;;;;;;0.52;0.50;;;;;;;33.50;35.07;99620.84;5072113;28;20635;-67
2023/07/09 09:11:42;;;;;;;0.28;0.28;;;;;;;33.66;33.63;99628.63;5072038;28;20195;-67
2023/07/09 09:14:27;;;;;;;0.73;0.73;;;;;;;33.82;31.58;99624.91;5071869;28;20200;-66
2023/07/09 09:16:55;;;;;;;0.40;0.40;;;;;;;33.92;31.53;99638.72;5070353;28;20638;-67
2023/07/09 09:19:27;;;;;;;0.88;0.40;;;;;;;34.01;32.14;99632.25;5071224;28;20202;-67
2023/07/09 09:21:59;;;;;;;0.40;0.40;;;;;;;34.01;31.54;99643.72;5071755;28;20200;-67
2023/07/09 09:24:32;;;;;;;0.40;0.40;;;;;;;34.08;31.46;99644.59;5071772;28;20208;-67
2023/07/09 09:27:00;;;;;;;0.47;0.47;;;;;;;34.10;30.67;99631.91;5071500;28;20207;-66
2023/07/09 09:29:27;;;;;;;0.50;0.50;;;;;;;34.05;32.71;99638.84;5071588;28;20261;-67
2023/07/09 09:31:56;;;;;;;0.60;0.60;;;;;;;34.18;30.46;99639.81;5071434;28;20235;-67
2023/07/09 09:34:28;;;;;;;0.32;0.30;;;;;;;34.28;31.28;99640.28;5071064;28;20208;-66
2023/07/09 09:36:55;;;;;;;0.25;0.25;;;;;;;34.33;29.91;99633.56;5070501;28;20320;-66
2023/07/09 09:39:24;;;;;;;0.52;0.47;;;;;;;34.36;32.75;99642.00;5071202;28;20195;-67
2023/07/09 09:41:54;;;;;;;0.40;0.40;;;;;;;34.53;30.88;99637.19;5071187;28;20739;-67
2023/07/09 09:44:29;;;;;;;0.40;0.40;;;;;;;34.49;33.40;99646.59;5071388;28;20234;-67
2023/07/09 09:46:57;;;;;;;0.38;0.38;;;;;;;34.58;30.74;99640.09;5071291;28;20206;-66
2023/07/09 09:49:26;;;;;;;0.43;0.43;;;;;;;34.46;28.88;99642.47;5071356;28;20207;-67
2023/07/09 09:51:56;;;;;;;1.08;0.50;;;;;;;34.56;28.48;99644.78;5071238;28;20196;-66
2023/07/09 09:54:27;;;;;;;0.50;0.50;;;;;;;34.59;30.76;99639.91;5070994;28;20557;-67
2023/07/09 09:56:54;;;;;;;0.32;0.32;;;;;;;34.60;28.73;99640.75;5071260;28;20212;-66
2023/07/09 09:59:30;;;;;;;1.40;0.35;;;;;;;34.65;28.85;99635.66;5071128;28;20257;-67
2023/07/09 10:01:59;;;;;;;0.40;0.40;;;;;;;34.71;28.80;99634.88;5071005;28;20187;-66
2023/07/09 10:04:28;;;;;;;0.45;0.45;;;;;;;34.60;28.68;99644.25;5071034;28;20196;-66
2023/07/09 10:06:57;;;;;;;0.82;0.40;;;;;;;34.55;31.00;99632.50;5070766;28;20192;-66
2023/07/09 10:09:39;;;;;;;1.55;1.05;;;;;;;34.55;30.48;99624.50;5070733;28;20200;-66
2023/07/09 10:12:16;;;;;;;0.47;0.47;;;;;;;34.64;30.90;99626.03;5070666;28;20694;-66
2023/07/09 10:14:50;;;;;;;0.40;0.40;;;;;;;34.53;30.41;99624.72;5071144;28;20199;-66
2023/07/09 10:17:24;;;;;;;0.55;0.55;;;;;;;34.62;30.03;99630.72;5070255;28;20262;-66
2023/07/09 10:19:58;;;;;;;0.47;0.45;;;;;;;34.56;31.16;99620.84;5071008;28;20200;-66
2023/07/09 10:22:43;;;;;;;0.52;0.52;;;;;;;34.75;30.82;99613.00;5070517;28;20252;-66
2023/07/09 10:25:30;;;;;;;0.38;0.38;;;;;;;34.70;30.92;99618.06;5070710;28;20196;-66
2023/07/09 10:28:16;;;;;;;0.95;0.40;;;;;;;34.73;32.53;99611.56;5071054;28;20204;-66
2023/07/09 10:30:51;;;;;;;0.40;0.40;;;;;;;34.85;29.98;99609.97;5070865;28;20241;-66
2023/07/09 10:33:26;;;;;;;0.50;0.50;;;;;;;34.83;31.87;99609.38;5070737;28;20195;-66
2023/07/09 10:36:02;;;;;;;0.40;0.40;;;;;;;34.67;31.82;99612.34;5070737;28;20633;-66
2023/07/09 10:38:42;;;;;;;0.50;0.50;;;;;;;34.72;31.92;99617.88;5069466;28;20205;-66
2023/07/09 10:41:12;;;;;;;0.38;0.38;;;;;;;34.85;33.16;99609.97;5070656;28;20203;-66
2023/07/09 10:43:44;;;;;;;0.30;0.30;;;;;;;34.95;30.70;99605.13;5070711;28;20626;-66
2023/07/09 10:46:15;;;;;;;0.35;0.35;;;;;;;34.83;32.19;99606.69;5072529;28;20196;-67
2023/07/09 10:48:45;;;;;;;0.40;0.40;;;;;;;34.83;30.69;99611.19;5074897;28;20196;-66
2023/07/09 10:51:22;;;;;;;0.30;0.30;;;;;;;34.71;30.25;99610.91;5074722;28;20219;-67
2023/07/09 10:53:53;;;;;;;0.55;0.55;;;;;;;34.87;33.03;99605.25;5074517;28;20333;-66
2023/07/09 10:56:25;;;;;;;0.38;0.38;;;;;;;34.93;31.32;99604.47;5074329;28;20220;-66
2023/07/09 10:58:58;;;;;;;0.50;0.50;;;;;;;35.00;31.14;99597.34;5074543;28;20203;-66
2023/07/09 11:01:32;;;;;;;0.77;0.70;;;;;;;35.07;31.00;99598.19;5074484;28;20273;-66
2023/07/09 11:04:03;;;;;;;0.60;0.60;;;;;;;35.09;32.71;99596.13;5074718;28;20668;-66
2023/07/09 11:06:35;;;;;;;0.40;0.40;;;;;;;35.13;30.48;99597.44;5074135;28;20196;-66
2023/07/09 11:09:03;;;;;;;0.30;0.30;;;;;;;35.06;31.74;99593.88;5074391;28;20223;-66
2023/07/09 11:11:35;;;;;;;0.50;0.50;;;;;;;35.01;29.82;99591.00;5074262;28;20621;-66
2023/07/09 11:14:10;;;;;;;0.35;0.35;;;;;;;35.05;30.32;99578.91;5069075;28;20207;-66
2023/07/09 11:16:40;;;;;;;0.40;0.40;;;;;;;34.99;30.21;99587.72;5073850;28;20313;-66
2023/07/09 11:19:16;;;;;;;0.75;0.50;;;;;;;35.19;32.65;99585.97;5074269;28;20292;-66
2023/07/09 11:22:00;;;;;;;0.25;0.25;;;;;;;35.19;29.93;99587.78;5073994;28;20250;-66
2023/07/09 11:24:33;;;;;;;0.50;0.50;;;;;;;34.91;29.66;99571.06;5071410;28;20235;-66
2023/07/09 11:27:01;;;;;;;0.60;0.60;;;;;;;34.69;29.69;99583.66;5073486;28;20196;-66
2023/07/09 11:29:28;;;;;;;0.50;0.50;;;;;;;34.59;30.23;99572.50;5073777;28;20211;-66
2023/07/09 11:31:59;;;;;;;0.40;0.35;;;;;;;34.54;33.76;99573.06;5074043;28;20660;-66
2023/07/09 11:34:29;;;;;;;0.95;0.95;;;;;;;34.63;32.67;99569.28;5073706;28;20635;-66
2023/07/09 11:37:02;;;;;;;0.50;0.50;;;;;;;34.70;31.00;99569.34;5073586;28;20208;-66
2023/07/09 11:39:32;;;;;;;0.32;0.32;;;;;;;34.71;31.17;99565.63;5073975;28;20636;-66
2023/07/09 11:41:59;;;;;;;0.52;0.52;;;;;;;34.70;30.89;99558.69;5073815;28;20200;-66